createdAt,value
2023-08-07T00:02:08.113Z,99778.44
2023-08-07T00:04:35.737Z,99778.47
2023-08-07T00:07:03.566Z,99773.28
2023-08-07T00:09:32.089Z,99775.06
2023-08-07T00:11:59.696Z,99783.91
2023-08-07T00:14:27.381Z,99780.44
2023-08-07T00:16:54.966Z,99789.31
2023-08-07T00:22:07.679Z,99787.66
2023-08-07T00:27:20.449Z,99789.47
2023-08-07T00:29:48.055Z,99779.94
2023-08-07T00:32:34.674Z,99786.84
2023-08-07T00:35:02.405Z,99768.72
2023-08-07T00:37:30.916Z,99773.06
2023-08-07T00:39:58.602Z,99774.69
2023-08-07T00:42:26.205Z,99775.63
2023-08-07T00:44:54.207Z,99776.59
2023-08-07T00:47:22.129Z,99781.81
2023-08-07T00:49:50.039Z,99782.78
2023-08-07T00:52:20.372Z,99768.94
2023-08-07T00:54:48.466Z,99780.31
2023-08-07T00:57:18.110Z,99785.50
2023-08-07T00:59:46.133Z,99779.41
2023-08-07T01:02:14.902Z,99782.09
2023-08-07T01:04:42.616Z,99770.75
2023-08-07T01:10:14.258Z,99769.91
2023-08-07T01:12:53.889Z,99750.94
2023-08-07T01:15:31.099Z,99764.75
2023-08-07T01:18:01.009Z,99760.47
2023-08-07T01:23:32.749Z,99763.13
2023-08-07T01:26:00.961Z,99750.13
2023-08-07T01:28:34.310Z,99754.47
2023-08-07T01:31:25.663Z,99747.59
2023-08-07T01:34:00.452Z,99757.16
2023-08-07T01:36:30.843Z,99752.84
2023-08-07T01:38:59.857Z,99747.66
2023-08-07T01:41:28.463Z,99745.03
2023-08-07T01:43:56.321Z,99739.91
2023-08-07T01:46:24.011Z,99744.25
2023-08-07T01:48:51.686Z,99746.88
2023-08-07T01:51:37.524Z,99746.88
2023-08-07T01:54:05.180Z,99739.97
2023-08-07T01:56:32.763Z,99752.19
2023-08-07T01:59:00.361Z,99740.00
2023-08-07T02:01:27.968Z,99736.53
2023-08-07T02:03:55.658Z,99745.22
2023-08-07T02:06:23.241Z,99733.94
2023-08-07T02:08:50.890Z,99740.88
2023-08-07T02:11:18.629Z,99738.31
2023-08-07T02:13:46.378Z,99738.31
2023-08-07T02:16:15.057Z,99751.34
2023-08-07T02:18:42.971Z,99739.13
2023-08-07T02:21:30.407Z,99743.44
2023-08-07T02:23:58.204Z,99738.19
2023-08-07T02:26:25.786Z,99732.06
2023-08-07T02:28:53.453Z,99734.63
2023-08-07T02:31:21.137Z,99740.69
2023-08-07T02:33:48.764Z,99744.13
2023-08-07T02:36:16.356Z,99736.28
2023-08-07T02:38:44.093Z,99742.22
2023-08-07T02:41:11.662Z,99725.66
2023-08-07T02:43:39.417Z,99740.34
2023-08-07T02:46:07.073Z,99726.44
2023-08-07T02:48:34.774Z,99735.94
2023-08-07T02:51:02.326Z,99727.22
2023-08-07T02:53:29.915Z,99734.09
2023-08-07T02:56:15.873Z,99744.34
2023-08-07T02:58:43.535Z,99731.41
2023-08-07T03:01:12.840Z,99730.50
2023-08-07T03:03:40.595Z,99733.91
2023-08-07T03:06:08.190Z,99733.00
2023-08-07T03:08:35.863Z,99731.03
2023-08-07T03:11:03.479Z,99734.47
2023-08-07T03:13:31.147Z,99724.03
2023-08-07T03:16:17.535Z,99736.09
2023-08-07T03:18:46.309Z,99736.97
2023-08-07T03:21:14.065Z,99724.75
2023-08-07T03:23:42.801Z,99730.69
2023-08-07T03:26:29.938Z,99729.66
2023-08-07T03:28:57.849Z,99726.19
2023-08-07T03:31:25.445Z,99728.66
2023-08-07T03:36:57.617Z,99740.53
2023-08-07T03:39:25.962Z,99721.38
2023-08-07T03:41:53.682Z,99723.88
2023-08-07T03:44:21.417Z,99714.25
2023-08-07T03:46:49.063Z,99726.31
2023-08-07T03:49:16.752Z,99724.31
2023-08-07T03:54:29.295Z,99721.59
2023-08-07T03:56:57.150Z,99714.59
2023-08-07T03:59:25.112Z,99715.34
2023-08-07T04:01:52.769Z,99721.25
2023-08-07T04:04:39.223Z,99720.13
2023-08-07T04:07:06.915Z,99711.38
2023-08-07T04:09:53.162Z,99724.34
2023-08-07T04:12:21.905Z,99715.59
2023-08-07T04:15:07.978Z,99717.38
2023-08-07T04:17:54.378Z,99737.41
2023-08-07T04:20:22.086Z,99722.69
2023-08-07T04:22:49.687Z,99731.34
2023-08-07T04:25:17.434Z,99731.28
2023-08-07T04:27:45.138Z,99719.88
2023-08-07T04:30:13.575Z,99733.56
2023-08-07T04:32:41.885Z,99721.25
2023-08-07T04:35:10.515Z,99736.03
2023-08-07T04:37:38.197Z,99726.28
2023-08-07T04:40:06.114Z,99716.66
2023-08-07T04:42:33.846Z,99718.22
2023-08-07T04:45:01.377Z,99718.75
2023-08-07T04:47:30.118Z,99715.00
2023-08-07T04:49:57.886Z,99731.47
2023-08-07T04:52:26.900Z,99710.34
2023-08-07T04:54:54.806Z,99716.19
2023-08-07T04:57:22.467Z,99715.00
2023-08-07T04:59:50.174Z,99706.91
2023-08-07T05:02:17.777Z,99703.97
2023-08-07T05:04:45.646Z,99696.66
2023-08-07T05:07:13.433Z,99696.03
2023-08-07T05:09:41.000Z,99700.81
2023-08-07T05:12:27.474Z,99696.09
2023-08-07T05:14:55.193Z,99694.13
2023-08-07T05:17:23.148Z,99691.81
2023-08-07T05:19:50.893Z,99693.38
2023-08-07T05:22:18.499Z,99689.63
2023-08-07T05:24:46.694Z,99691.81
2023-08-07T05:27:14.261Z,99688.91
2023-08-07T05:29:45.182Z,99685.16
2023-08-07T05:32:14.391Z,99692.50
2023-08-07T05:35:01.144Z,99690.13
2023-08-07T05:37:47.608Z,99688.44
2023-08-07T05:40:15.220Z,99681.94
2023-08-07T05:42:43.041Z,99675.63
2023-08-07T05:45:11.962Z,99685.50
2023-08-07T05:47:39.713Z,99688.28
2023-08-07T05:50:07.818Z,99668.16
2023-08-07T05:52:36.401Z,99667.75
2023-08-07T05:55:07.485Z,99678.25
2023-08-07T05:57:36.256Z,99680.06
2023-08-07T06:00:05.011Z,99671.69
2023-08-07T06:02:40.161Z,99666.72
2023-08-07T06:05:09.008Z,99668.97
2023-08-07T06:07:36.707Z,99663.94
2023-08-07T06:10:04.674Z,99667.25
2023-08-07T06:12:32.690Z,99661.22
2023-08-07T06:15:00.367Z,99687.47
2023-08-07T06:17:28.693Z,99673.88
2023-08-07T06:19:56.334Z,99668.38
2023-08-07T06:22:24.180Z,99645.75
2023-08-07T06:24:51.938Z,99656.72
2023-08-07T06:27:23.101Z,99659.50
2023-08-07T06:29:50.732Z,99652.56
2023-08-07T06:32:19.523Z,99641.72
2023-08-07T06:34:47.930Z,99663.81
2023-08-07T06:37:15.547Z,99648.25
2023-08-07T06:39:43.208Z,99652.69
2023-08-07T06:42:10.807Z,99651.44
2023-08-07T06:44:38.471Z,99656.53
2023-08-07T06:47:24.444Z,99654.22
2023-08-07T06:50:11.358Z,99649.41
2023-08-07T06:52:39.532Z,99646.53
2023-08-07T06:55:08.022Z,99649.28
2023-08-07T06:57:36.056Z,99654.28
2023-08-07T07:00:04.348Z,99631.22
2023-08-07T07:02:34.020Z,99633.28
2023-08-07T07:05:02.181Z,99633.03
2023-08-07T07:07:31.257Z,99644.75
2023-08-07T07:10:02.095Z,99631.94
2023-08-07T07:12:32.765Z,99648.22
2023-08-07T07:15:00.424Z,99628.91
2023-08-07T07:17:28.053Z,99627.88
2023-08-07T07:19:56.468Z,99625.47
2023-08-07T07:22:43.067Z,99629.38
2023-08-07T07:25:10.843Z,99618.00
2023-08-07T07:27:38.241Z,99615.91
2023-08-07T07:30:06.810Z,99612.00
2023-08-07T07:32:34.635Z,99625.72
2023-08-07T07:35:02.756Z,99614.13
2023-08-07T07:37:32.599Z,99630.34
2023-08-07T07:40:00.334Z,99616.16
2023-08-07T07:42:27.950Z,99611.84
2023-08-07T07:44:56.042Z,99625.50
2023-08-07T07:47:23.624Z,99607.09
2023-08-07T07:50:07.053Z,99616.19
2023-08-07T07:52:34.769Z,99622.69
2023-08-07T07:55:02.442Z,99622.31
2023-08-07T07:57:30.526Z,99616.28
2023-08-07T07:59:58.318Z,99602.09
2023-08-07T08:02:26.027Z,99610.59
2023-08-07T08:04:53.919Z,99600.38
2023-08-07T08:07:21.797Z,99604.69
2023-08-07T08:10:09.855Z,99589.09
2023-08-07T08:12:38.010Z,99604.75
2023-08-07T08:15:06.156Z,99605.78
2023-08-07T08:17:34.910Z,99608.06
2023-08-07T08:20:02.661Z,99596.28
2023-08-07T08:22:33.275Z,99595.03
2023-08-07T08:25:00.945Z,99583.31
2023-08-07T08:27:28.470Z,99586.41
2023-08-07T08:29:56.166Z,99599.06
2023-08-07T08:32:23.791Z,99578.97
2023-08-07T08:34:51.421Z,99583.31
2023-08-07T08:37:19.442Z,99582.56
2023-08-07T08:39:47.544Z,99582.31
2023-08-07T08:42:19.570Z,99571.72
2023-08-07T08:47:38.657Z,99575.25
2023-08-07T08:50:25.640Z,99567.78
2023-08-07T08:52:56.591Z,99556.38
2023-08-07T08:55:24.737Z,99555.59
2023-08-07T08:58:11.236Z,99570.41
2023-08-07T09:00:39.109Z,99559.81
2023-08-07T09:03:06.923Z,99555.84
2023-08-07T09:05:36.757Z,99551.69
2023-08-07T09:08:06.518Z,99551.22
2023-08-07T09:10:35.777Z,99556.16
2023-08-07T09:13:06.821Z,99559.75
2023-08-07T09:15:34.701Z,99549.59
2023-08-07T09:18:08.677Z,99549.81
2023-08-07T09:20:40.817Z,99555.94
2023-08-07T09:23:08.880Z,99534.25
2023-08-07T09:26:02.110Z,99551.69
2023-08-07T09:28:33.103Z,99541.03
2023-08-07T09:31:03.154Z,99526.09
2023-08-07T09:33:34.283Z,99536.94
2023-08-07T09:36:02.881Z,99553.78
2023-08-07T09:38:33.969Z,99546.78
2023-08-07T09:41:06.971Z,99551.69
2023-08-07T09:43:38.162Z,99537.84
2023-08-07T09:46:07.273Z,99536.94
2023-08-07T09:48:45.111Z,99517.69
2023-08-07T09:51:12.939Z,99516.75
2023-08-07T09:53:41.663Z,99536.72
2023-08-07T09:56:10.256Z,99512.31
2023-08-07T09:58:37.885Z,99509.06
2023-08-07T10:01:05.863Z,99506.03
2023-08-07T10:03:33.967Z,99514.91
2023-08-07T10:06:02.592Z,99502.13
2023-08-07T10:08:31.119Z,99510.94
2023-08-07T10:11:18.548Z,99499.09
2023-08-07T10:13:46.762Z,99499.06
2023-08-07T10:16:33.173Z,99499.72
2023-08-07T10:19:00.870Z,99486.06
2023-08-07T10:21:28.901Z,99493.22
2023-08-07T10:23:58.721Z,99476.09
2023-08-07T10:26:27.458Z,99498.59
2023-08-07T10:28:55.739Z,99478.66
2023-08-07T10:31:43.542Z,99494.00
2023-08-07T10:34:11.431Z,99482.03
2023-08-07T10:36:57.719Z,99465.06
2023-08-07T10:39:25.731Z,99465.81
2023-08-07T10:41:56.458Z,99468.31
2023-08-07T10:44:32.224Z,99469.84
2023-08-07T10:49:38.188Z,99444.25
2023-08-07T10:52:26.204Z,99464.19
2023-08-07T10:54:55.630Z,99455.13
2023-08-07T10:57:24.307Z,99440.00
2023-08-07T10:59:57.648Z,99452.19
2023-08-07T11:02:29.490Z,99432.41
2023-08-07T11:04:57.995Z,99442.00
2023-08-07T11:07:45.732Z,99434.44
2023-08-07T11:10:18.084Z,99426.75
2023-08-07T11:12:47.114Z,99425.53
2023-08-07T11:15:15.967Z,99423.59
2023-08-07T11:17:44.061Z,99432.75
2023-08-07T11:20:12.312Z,99426.72
2023-08-07T11:22:40.580Z,99421.91
2023-08-07T11:25:12.180Z,99422.44
2023-08-07T11:27:39.895Z,99400.59
2023-08-07T11:30:11.957Z,99405.81
2023-08-07T11:32:39.688Z,99409.19
2023-08-07T11:35:08.011Z,99409.88
2023-08-07T11:37:35.707Z,99414.78
2023-08-07T11:40:21.661Z,99410.41
2023-08-07T11:42:49.347Z,99402.25
2023-08-07T11:45:17.079Z,99402.06
2023-08-07T11:47:44.959Z,99400.94
2023-08-07T11:50:12.994Z,99403.50
2023-08-07T11:52:41.389Z,99391.16
2023-08-07T11:55:10.537Z,99405.69
2023-08-07T11:57:41.187Z,99406.41
2023-08-07T12:00:15.321Z,99390.81
2023-08-07T12:02:45.826Z,99383.72
2023-08-07T12:05:13.773Z,99383.91
2023-08-07T12:07:41.438Z,99379.16
2023-08-07T12:10:10.871Z,99382.34
2023-08-07T12:12:57.701Z,99374.00
2023-08-07T12:15:25.427Z,99369.47
2023-08-07T12:18:02.369Z,99367.31
2023-08-07T12:20:30.233Z,99361.53
2023-08-07T12:22:57.761Z,99364.63
2023-08-07T12:25:25.389Z,99373.75
2023-08-07T12:27:53.846Z,99358.91
2023-08-07T12:30:21.574Z,99360.13
2023-08-07T12:32:49.187Z,99358.59
2023-08-07T12:35:16.934Z,99353.34
2023-08-07T12:37:45.075Z,99362.06
2023-08-07T12:42:43.306Z,99348.41
2023-08-07T12:45:11.308Z,99343.88
2023-08-07T12:47:39.163Z,99337.31
2023-08-07T12:50:07.737Z,99330.00
2023-08-07T12:52:36.309Z,99333.63
2023-08-07T12:55:05.180Z,99356.50
2023-08-07T13:00:37.224Z,99324.91
2023-08-07T13:03:05.089Z,99318.03
2023-08-07T13:05:32.720Z,99331.25
2023-08-07T13:08:00.581Z,99304.53
2023-08-07T13:10:32.571Z,99309.91
2023-08-07T13:13:02.637Z,99301.38
2023-08-07T13:15:30.642Z,99302.13
2023-08-07T13:18:18.004Z,99308.84
2023-08-07T13:20:46.106Z,99312.66
2023-08-07T13:23:15.300Z,99285.09
2023-08-07T13:25:43.018Z,99291.78
2023-08-07T13:28:10.562Z,99293.09
2023-08-07T13:30:38.368Z,99258.97
2023-08-07T13:33:06.159Z,99267.41
2023-08-07T13:35:37.309Z,99271.19
2023-08-07T13:38:07.101Z,99270.59
2023-08-07T13:40:35.723Z,99283.72
2023-08-07T13:43:09.071Z,99267.41
2023-08-07T13:45:55.899Z,99272.25
2023-08-07T13:51:12.852Z,99260.56
2023-08-07T13:53:40.439Z,99248.28
2023-08-07T13:56:10.070Z,99254.56
2023-08-07T13:58:37.707Z,99242.94
2023-08-07T14:01:05.678Z,99249.19
2023-08-07T14:03:33.681Z,99250.38
2023-08-07T14:06:02.854Z,99229.69
2023-08-07T14:08:30.545Z,99243.19
2023-08-07T14:10:58.111Z,99239.88
2023-08-07T14:13:25.830Z,99229.69
2023-08-07T14:15:53.339Z,99235.03
2023-08-07T14:18:21.112Z,99227.94
2023-08-07T14:21:00.774Z,99236.84
2023-08-07T14:23:33.854Z,99231.81
2023-08-07T14:26:02.973Z,99223.72
2023-08-07T14:28:30.663Z,99211.50
2023-08-07T14:31:00.623Z,99227.81
2023-08-07T14:33:29.548Z,99222.75
2023-08-07T14:35:57.303Z,99212.47
2023-08-07T14:38:24.862Z,99205.69
2023-08-07T14:40:52.616Z,99195.09
2023-08-07T14:43:20.235Z,99197.59
2023-08-07T14:46:06.418Z,99221.38
2023-08-07T14:48:34.213Z,99213.91
2023-08-07T14:51:01.771Z,99198.94
2023-08-07T14:53:29.775Z,99207.44
2023-08-07T14:55:58.061Z,99202.16
2023-08-07T14:58:25.840Z,99228.88
2023-08-07T15:00:56.650Z,99220.22
2023-08-07T15:03:43.465Z,99206.88
2023-08-07T15:06:11.335Z,99199.59
2023-08-07T15:08:38.950Z,99193.19
2023-08-07T15:11:25.048Z,99182.94
2023-08-07T15:13:53.088Z,99178.94
2023-08-07T15:16:20.753Z,99197.03
2023-08-07T15:18:48.993Z,99193.06
2023-08-07T15:21:16.539Z,99196.94
2023-08-07T15:23:44.253Z,99193.53
2023-08-07T15:26:30.597Z,99202.94
2023-08-07T15:28:58.334Z,99190.81
2023-08-07T15:31:25.932Z,99166.75
2023-08-07T15:33:54.372Z,99162.47
2023-08-07T15:36:22.244Z,99165.13
2023-08-07T15:38:49.839Z,99156.72
2023-08-07T15:41:17.614Z,99160.31
2023-08-07T15:43:45.676Z,99168.31
2023-08-07T15:46:13.394Z,99146.06
2023-08-07T15:48:41.084Z,99167.78
2023-08-07T15:51:08.945Z,99169.88
2023-08-07T15:53:36.917Z,99161.00
2023-08-07T15:56:05.027Z,99147.19
2023-08-07T15:58:32.739Z,99159.72
2023-08-07T16:01:00.411Z,99183.88
2023-08-07T16:03:28.397Z,99174.50
2023-08-07T16:05:56.038Z,99164.88
2023-08-07T16:08:24.307Z,99172.00
2023-08-07T16:10:53.900Z,99162.75
2023-08-07T16:13:24.286Z,99166.31
2023-08-07T16:15:52.038Z,99166.47
2023-08-07T16:18:19.737Z,99149.28
2023-08-07T16:20:47.439Z,99156.19
2023-08-07T16:23:15.042Z,99160.06
2023-08-07T16:25:42.679Z,99161.88
2023-08-07T16:28:10.370Z,99138.53
2023-08-07T16:30:38.061Z,99147.31
2023-08-07T16:33:06.018Z,99145.66
2023-08-07T16:35:33.719Z,99142.19
2023-08-07T16:38:01.408Z,99145.09
2023-08-07T16:40:30.059Z,99143.44
2023-08-07T16:42:57.826Z,99140.16
2023-08-07T16:45:26.400Z,99141.94
2023-08-07T16:47:54.048Z,99139.44
2023-08-07T16:50:21.604Z,99121.38
2023-08-07T16:52:49.453Z,99122.25
2023-08-07T16:58:02.143Z,99124.69
2023-08-07T17:00:29.828Z,99122.88
2023-08-07T17:02:57.858Z,99136.34
2023-08-07T17:05:26.461Z,99120.19
2023-08-07T17:07:54.149Z,99139.53
2023-08-07T17:10:21.702Z,99121.38
2023-08-07T17:12:49.719Z,99122.38
2023-08-07T17:15:17.206Z,99138.16
2023-08-07T17:17:44.979Z,99126.22
2023-08-07T17:20:13.123Z,99123.94
2023-08-07T17:22:40.933Z,99130.28
2023-08-07T17:25:09.025Z,99134.84
2023-08-07T17:27:36.711Z,99134.19
2023-08-07T17:30:04.930Z,99143.81
2023-08-07T17:32:32.751Z,99135.38
2023-08-07T17:35:01.612Z,99126.03
2023-08-07T17:37:29.940Z,99149.72
2023-08-07T17:39:57.562Z,99151.63
2023-08-07T17:42:25.184Z,99151.03
2023-08-07T17:44:52.871Z,99148.72
2023-08-07T17:47:20.413Z,99144.34
2023-08-07T17:49:48.136Z,99154.25
2023-08-07T17:52:16.336Z,99150.88
2023-08-07T17:54:45.067Z,99149.28
2023-08-07T17:57:31.801Z,99144.09
2023-08-07T18:00:02.688Z,99154.81
2023-08-07T18:02:35.145Z,99145.28
2023-08-07T18:05:03.975Z,99145.41
2023-08-07T18:07:31.896Z,99140.47
2023-08-07T18:09:59.480Z,99151.78
2023-08-07T18:12:27.074Z,99174.00
2023-08-07T18:14:54.870Z,99159.50
2023-08-07T18:17:22.588Z,99162.91
2023-08-07T18:19:50.329Z,99169.19
2023-08-07T18:22:19.635Z,99168.44
2023-08-07T18:24:47.259Z,99177.41
2023-08-07T18:27:15.371Z,99181.03
2023-08-07T18:29:43.049Z,99176.03
2023-08-07T18:32:10.652Z,99164.81
2023-08-07T18:34:38.274Z,99178.69
2023-08-07T18:37:05.886Z,99168.63
2023-08-07T18:39:38.529Z,99189.56
2023-08-07T18:42:07.268Z,99187.19
2023-08-07T18:44:35.263Z,99188.22
2023-08-07T18:47:03.020Z,99188.38
2023-08-07T18:49:30.761Z,99194.84
2023-08-07T18:52:17.852Z,99182.81
2023-08-07T18:54:45.830Z,99174.16
2023-08-07T18:57:14.058Z,99160.34
2023-08-07T18:59:41.623Z,99163.13
2023-08-07T19:02:09.365Z,99176.66
2023-08-07T19:04:37.064Z,99181.66
2023-08-07T19:07:05.097Z,99167.03
2023-08-07T19:09:32.837Z,99159.13
2023-08-07T19:12:00.470Z,99182.97
2023-08-07T19:14:28.101Z,99152.78
2023-08-07T19:16:55.686Z,99166.41
2023-08-07T19:19:23.473Z,99143.06
2023-08-07T19:21:51.011Z,99156.28
2023-08-07T19:24:18.668Z,99156.28
2023-08-07T19:26:46.206Z,99125.84
2023-08-07T19:29:14.116Z,99135.56
2023-08-07T19:31:43.142Z,99153.88
2023-08-07T19:34:13.667Z,99141.56
2023-08-07T19:36:41.751Z,99128.81
2023-08-07T19:39:09.494Z,99138.31
2023-08-07T19:41:37.520Z,99152.50
2023-08-07T19:44:05.281Z,99137.44
2023-08-07T19:46:33.027Z,99140.06
2023-08-07T19:49:00.825Z,99107.03
2023-08-07T19:51:28.425Z,99138.59
2023-08-07T19:54:21.232Z,99130.81
2023-08-07T19:56:48.895Z,99123.13
2023-08-07T19:59:16.442Z,99127.31
2023-08-07T20:01:44.185Z,99095.88
2023-08-07T20:04:14.856Z,99097.06
2023-08-07T20:06:42.726Z,99112.78
2023-08-07T20:09:10.337Z,99089.38
2023-08-07T20:11:38.916Z,99098.06
2023-08-07T20:14:06.639Z,99084.97
2023-08-07T20:16:34.323Z,99081.56
2023-08-07T20:19:02.007Z,99059.81
2023-08-07T20:21:29.714Z,99058.03
2023-08-07T20:23:57.982Z,99050.16
2023-08-07T20:26:25.634Z,99026.88
2023-08-07T20:28:53.322Z,99039.66
2023-08-07T20:31:21.004Z,99048.47
2023-08-07T20:33:48.595Z,99037.44
2023-08-07T20:36:16.973Z,99060.41
2023-08-07T20:38:44.662Z,99073.53
2023-08-07T20:41:12.284Z,99072.91
2023-08-07T20:43:39.865Z,99066.03
2023-08-07T20:46:08.213Z,99068.78
2023-08-07T20:51:21.127Z,99071.59
2023-08-07T20:53:48.719Z,99082.19
2023-08-07T20:56:16.441Z,99077.00
2023-08-07T20:58:44.037Z,99084.16
2023-08-07T21:01:11.719Z,99072.19
2023-08-07T21:03:39.378Z,99078.19
2023-08-07T21:06:07.093Z,99074.75
2023-08-07T21:08:34.694Z,99063.59
2023-08-07T21:11:02.392Z,99073.19
2023-08-07T21:13:30.029Z,99055.78
2023-08-07T21:15:57.834Z,99062.91
2023-08-07T21:18:25.409Z,99069.91
2023-08-07T21:20:53.008Z,99062.16
2023-08-07T21:23:20.697Z,99064.03
2023-08-07T21:25:50.571Z,99056.19
2023-08-07T21:28:18.300Z,99057.38
2023-08-07T21:30:45.971Z,99055.47
2023-08-07T21:33:13.773Z,99059.28
2023-08-07T21:35:41.426Z,99068.91
2023-08-07T21:38:09.105Z,99066.44
2023-08-07T21:40:55.259Z,99063.31
2023-08-07T21:43:41.649Z,99064.97
2023-08-07T21:46:09.488Z,99055.63
2023-08-07T21:48:37.100Z,99044.44
2023-08-07T21:51:05.003Z,99059.16
2023-08-07T21:53:33.003Z,99053.19
2023-08-07T21:56:00.760Z,99060.28
2023-08-07T21:58:28.393Z,99046.50
2023-08-07T22:00:56.035Z,99044.81
2023-08-07T22:03:23.631Z,99057.91
2023-08-07T22:05:52.367Z,99050.00
2023-08-07T22:08:20.069Z,99052.88
2023-08-07T22:10:47.839Z,99075.63
2023-08-07T22:13:15.428Z,99089.75
2023-08-07T22:15:43.335Z,99115.09
2023-08-07T22:18:11.043Z,99116.16
2023-08-07T22:20:38.796Z,99122.22
2023-08-07T22:23:06.426Z,99127.59
2023-08-07T22:25:34.072Z,99129.44
2023-08-07T22:28:01.696Z,99121.72
2023-08-07T22:30:29.402Z,99124.69
2023-08-07T22:32:57.407Z,99128.19
2023-08-07T22:35:25.238Z,99121.31
2023-08-07T22:37:52.974Z,99108.47
2023-08-07T22:40:20.666Z,99093.91
2023-08-07T22:43:07.173Z,99093.22
2023-08-07T22:45:54.384Z,99088.06
2023-08-07T22:48:22.169Z,99094.09
2023-08-07T22:50:49.948Z,99093.28
2023-08-07T22:53:17.603Z,99096.84
2023-08-07T22:55:48.386Z,99079.63
2023-08-07T22:58:16.076Z,99090.97
2023-08-07T23:00:43.647Z,99074.38
2023-08-07T23:03:11.638Z,99054.44
2023-08-07T23:05:39.304Z,99065.78
2023-08-07T23:10:53.254Z,99074.56
2023-08-07T23:13:20.898Z,99062.41
2023-08-07T23:16:06.952Z,99053.69
2023-08-07T23:18:53.234Z,99045.88
2023-08-07T23:21:21.086Z,99041.53
2023-08-07T23:23:48.692Z,99032.84
2023-08-07T23:26:16.347Z,99039.03
2023-08-07T23:28:44.000Z,99062.72
2023-08-07T23:31:11.726Z,99056.63
2023-08-07T23:33:39.316Z,99041.97
2023-08-07T23:36:07.024Z,99048.88
2023-08-07T23:38:52.963Z,99034.16
2023-08-07T23:41:20.693Z,99022.06
2023-08-07T23:43:48.348Z,99047.09
2023-08-07T23:46:16.377Z,99039.41
2023-08-07T23:48:43.995Z,99043.84
2023-08-07T23:51:11.606Z,99043.06
2023-08-07T23:53:57.590Z,99043.72
2023-08-07T23:56:43.693Z,99034.19
2023-08-07T23:59:11.467Z,99020.44
